Klein, Montana
Current Conditions -  °F | °C
As of 8:35 PM on Saturday 22 Nov 2014 (Local Time) from KMVH Reporting Station
Overcast Overcast  
Wind Chill: 27°   Ceiling: 5000
Heat Index: 36°   Visibility: 10mi
Dew Point: 14°   Wind: 14mph
Humidity: 41%   Direction: 310°NW
Pressure: 29.51"   Gusts: 22mph
Location:  46.4961°N, 108.568°W
Report Text: KMVH 230335Z AUTO 31012G19KT 10SM SCT039 OVC050 02/M10 A2951 RMK A01
Loading
Personal Weather Stations






























Interactive Weather Map New forecast layout! Learn more

10-Day Weather Forecast

Advertisements
Track Severe Weather on mobile